ADDS METAR Data INFO
IDs: Format: Raw Decoded Include TAF

Data at: 2249 UTC 11 Dec 2017

PAHX 112156Z AUTO 03005KT 10SM BKN017 OVC022 M03/M04 A2923 RMK AO2 SNE31 SLP897 P0000 T10331044 FZRANO
PAHX 112120Z AUTO 02004KT 6SM -SN BR BKN026 OVC035 M03/M04 A2920 RMK AO2 P0000 FZRANO
PAHX 112056Z AUTO 05005KT 3SM -SN BR FEW019 BKN039 OVC049 M03/M04 A2919 RMK AO2 SLP885 P0000 60000 T10331044 53033 FZRANO
PAHX 111956Z AUTO 04008KT 10SM -SN OVC065 M04/M04 A2915 RMK AO2 SNB52 SLP873 P0000 T10391044 FZRANO
PAHX 111856Z AUTO 03009KT 10SM OVC070 M04/M05 A2912 RMK AO2 SLP862 T10441050 FZRANO
PAHX 111756Z AUTO 01007KT 10SM OVC085 M05/M06 A2909 RMK AO2 SLP853 60000 T10501056 11039 21050 53026 FZRANO
PAHX 111656Z AUTO 02007KT 10SM SCT080 OVC090 M04/M05 A2906 RMK AO2 SLP842 T10441050 FZRANO
PAHX 111556Z AUTO 04007KT 10SM OVC085 M04/M05 A2903 RMK AO2 SLP833 T10441050 FZRANO
PAHX 111456Z AUTO 04006KT 10SM CLR M04/M06 A2902 RMK AO2 SLP826 60000 T10441056 55008 FZRANO
PAHX 111356Z AUTO 03005KT 10SM FEW018 M05/M06 A2901 RMK AO2 SLP826 T10501056 FZRANO
PAHX 111256Z AUTO 36005KT 10SM OVC070 M04/M06 A2901 RMK AO2 SNB09E21 SLP825 P0000 T10441056 FZRANO
PAHX 111156Z AUTO 04007KT 10SM FEW080 BKN090 OVC110 M05/M06 A2904 RMK AO2 SLP835 T10501061 11050 21056 56047 FZRANO
PAHX 111056Z AUTO 02011KT 10SM BKN090 M06/M07 A2907 RMK AO2 SLP844 T10561067 FZRANO
PAHX 110956Z AUTO 02013KT 10SM SCT060 BKN085 OVC100 M05/M06 A2913 RMK AO2 SLP864 T10501061 FZRANO
PAHX 110856Z AUTO VRB04KT 10SM SCT009 SCT120 M06/M07 A2918 RMK AO2 SLP882 T10561067 410501067 58027 FZRANO
PAHX 110836Z AUTO VRB03KT 10SM SCT009 SCT120 M06/M07 A2919 RMK AO2 FZRANO
PAHX 110811Z AUTO 00000KT 10SM BKN009 BKN085 M06/M07 A2921 RMK AO2 CIG 008V012 FZRANO
PAHX 110756Z AUTO 02006G15KT 10SM SCT009 BKN085 M06/M06 A2921 RMK AO2 SLP894 T10561061 FZRANO
PAHX 110738Z AUTO 02013G20KT 10SM SCT009 BKN085 M06/M06 A2922 RMK AO2 FZRANO
PAHX 110710Z AUTO 03013G17KT 10SM BKN009 OVC090 M06/M06 A2925 RMK AO2 FZRANO
PAHX 110656Z AUTO 04008KT 10SM SCT009 OVC100 M06/M06 A2926 RMK AO2 SLPNO T10561061 FZRANO
PAHX 110556Z AUTO 04015G21KT 10SM BKN095 M06/M06 A2929 RMK AO2 SLP919 60000 T10561061 11056 21061 58036 FZRANO
PAHX 110456Z AUTO 02008KT 10SM FEW120 M06/M07 A2934 RMK AO2 SLP938 T10611067 FZRANO
PAHX 110356Z AUTO 02004KT 10SM OVC100 M06/M07 A2937 RMK AO2 SLP947 T10561067 FZRANO
PAHX 110256Z AUTO 03010KT 10SM OVC070 M06/M07 A2939 RMK AO2 SLP955 60000 T10561067 58025 FZRANO
PAHX 110156Z AUTO 04007KT 9SM OVC055 M06/M07 A2942 RMK AO2 SNE55 SLP966 P0000 T10611067 FZRANO
PAHX 110112Z AUTO 04008KT 5SM -SN BR FEW029 OVC044 M06/M07 A2944 RMK AO2 P0000 FZRANO
PAHX 110056Z AUTO 04008KT 2 1/2SM -SN BR FEW027 OVC044 M06/M07 A2944 RMK AO2 SLP973 P0000 T10611072 FZRANO
PAHX 110004Z AUTO 04011KT 5SM -SN BR FEW025 OVC046 M06/M07 A2946 RMK AO2 P0000 FZRANO
PAHX 102356Z AUTO 05011KT 2 1/2SM -SN BR FEW025 OVC044 M06/M07 A2947 RMK AO2 SLP981 P0000 60000 T10611072 56011 FZRANO
PAHX 102333Z AUTO 04009KT 9SM -SN SCT019 SCT030 OVC048 M06/M07 A2948 RMK AO2 P0000 FZRANO
PAHX 102305Z AUTO 04009KT 3SM -SN BR BKN021 OVC032 M06/M07 A2949 RMK AO2 P0000 FZRANO
PAHX 102256Z AUTO 04009KT 2SM -SN BR OVC021 M06/M07 A2950 RMK AO2 SLP990 P0000 T10611072 FZRANO
PAHX 102251Z AUTO 04009KT 1 1/2SM -SN BR OVC021 M06/M07 A2950 RMK AO2 P0000 FZRANO
PAHX 102240Z AUTO 04008KT 1SM -SN BR BKN018 OVC025 M06/M07 A2951 RMK AO2 P0000 FZRANO
PAHX 102233Z AUTO 04006KT 3/4SM -SN BR BKN020 OVC025 M06/M07 A2951 RMK AO2 P0000 FZRANO
PAHX 102218Z AUTO 05006KT 1 3/4SM -SN BR OVC025 M06/M07 A2951 RMK AO2 P0000 FZRANO
PAHX 102210Z AUTO 05006KT 3SM -SN BR OVC027 M06/M07 A2952 RMK AO2 P0000 FZRANO
PAHX 102156Z AUTO 04009KT 1 1/4SM -SN BR OVC027 M06/M07 A2951 RMK AO2 SNB20 SLP995 P0000 T10611072 FZRANO
PAHX 102143Z AUTO 05008KT 1 1/4SM -SN BR BKN027 OVC036 M06/M07 A2952 RMK AO2 SNB20 P0000 FZRANO
PAHX 102056Z AUTO 05009KT 10SM FEW018 BKN044 OVC060 M06/M07 A2952 RMK AO2 SLP999 T10611072 58001 FZRANO
PAHX 102022Z AUTO 05007KT 10SM SCT010 OVC018 M06/M07 A2953 RMK AO2 FZRANO
PAHX 102011Z AUTO 06010KT 10SM BKN010 OVC018 M06/M07 A2953 RMK AO2 FZRANO
PAHX 101956Z AUTO 05009KT 10SM FEW012 OVC020 M06/M07 A2953 RMK AO2 SLP001 T10611072 FZRANO
PAHX 101919Z AUTO 04012KT 10SM FEW013 OVC022 A2953 RMK AO2 FZRANO
PAHX 101856Z AUTO 05011G16KT 10SM OVC011 A2953 RMK AO2 SLPNO FZRANO
PAHX 101820Z AUTO 05007KT 10SM OVC011 M06/M07 A2953 RMK AO2 FZRANO
PAHX 101756Z AUTO 06007KT 10SM OVC009 M06/M07 A2953 RMK AO2 CIG 008V012 SLP000 T10611072 11061 21061 50000 FZRANO
PAHX 101656Z AUTO 06007KT 10SM OVC011 M06/M07 A2953 RMK AO2 SLP001 T10611072 FZRANO
PAHX 101556Z AUTO 05008KT 10SM OVC011 M06/M07 A2953 RMK AO2 SLP000 T10611067 FZRANO
PAHX 101456Z AUTO 04006KT 10SM OVC011 M06/M07 A2953 RMK AO2 SLP000 T10611072 56008 FZRANO
PAHX 101356Z AUTO 05006KT 10SM OVC011 M06/M07 A2953 RMK AO2 SLP002 T10611072 FZRANO
PAHX 101256Z AUTO 04007KT 10SM OVC011 M06/M07 A2954 RMK AO2 CIG 009V013 SLP005 T10611072 FZRANO
PAHX 101156Z AUTO 04006KT 10SM OVC007 M06/M07 A2955 RMK AO2 SLP008 T10611067 11061 21061 56013 FZRANO
PAHX 101115Z AUTO 02007KT 10SM OVC007 M06/M07 A2955 RMK AO2 FZRANO
PAHX 101056Z AUTO 01003KT 7SM OVC005 M06/M07 A2956 RMK AO2 SLP010 T10611067 FZRANO